createdAt,value
2018-10-12T00:00:17.921Z,43.76
2018-10-12T00:01:17.940Z,43.79
2018-10-12T00:02:17.915Z,44.48
2018-10-12T00:03:17.066Z,43.59
2018-10-12T00:04:17.419Z,43.16
2018-10-12T00:05:17.947Z,44.16
2018-10-12T00:06:17.913Z,43.68
2018-10-12T00:07:17.009Z,43.59
2018-10-12T00:08:17.991Z,43.79
2018-10-12T00:09:17.458Z,43.76
2018-10-12T00:10:17.008Z,43.38
2018-10-12T00:11:16.966Z,43.29
2018-10-12T00:12:17.927Z,43.27
2018-10-12T00:13:16.942Z,43.16
2018-10-12T00:14:17.096Z,43.86
2018-10-12T00:15:17.981Z,43.79
2018-10-12T00:16:17.417Z,43.57
2018-10-12T00:17:16.920Z,43.08
2018-10-12T00:18:17.418Z,43.76
2018-10-12T00:19:17.048Z,43.08
2018-10-12T00:20:17.422Z,43.16
2018-10-12T00:21:16.866Z,43.66
2018-10-12T00:22:16.854Z,43.29
2018-10-12T00:23:17.454Z,43.79
2018-10-12T00:24:16.985Z,43.57
2018-10-12T00:25:17.429Z,43.59
2018-10-12T00:26:17.408Z,43.27
2018-10-12T00:27:16.800Z,43.07
2018-10-12T00:28:17.404Z,43.29
2018-10-12T00:29:16.946Z,43.29
2018-10-12T00:30:17.410Z,43.27
2018-10-12T00:31:17.451Z,43.29
2018-10-12T00:32:16.745Z,43.19
2018-10-12T00:33:16.731Z,43.08
2018-10-12T00:34:16.941Z,44.38
2018-10-12T00:35:16.739Z,43.29
2018-10-12T00:36:16.696Z,43.08
2018-10-12T00:37:17.434Z,43.57
2018-10-12T00:38:16.708Z,43.29
2018-10-12T00:39:16.894Z,43.29
2018-10-12T00:40:16.661Z,43.29
2018-10-12T00:41:17.427Z,43.29
2018-10-12T00:42:16.642Z,43.08
2018-10-12T00:43:16.617Z,43.08
2018-10-12T00:44:16.785Z,43.29
2018-10-12T00:45:16.597Z,43.29
2018-10-12T00:46:17.411Z,43.29
2018-10-12T00:47:17.414Z,43.37
2018-10-12T00:48:16.570Z,43.29
2018-10-12T00:49:16.754Z,43.49
2018-10-12T00:50:16.573Z,43.29
2018-10-12T00:51:16.534Z,43.29
2018-10-12T00:52:17.411Z,43.29
2018-10-12T00:53:16.520Z,43.29
2018-10-12T00:54:16.932Z,43.29
2018-10-12T00:55:17.448Z,43.29
2018-10-12T00:56:17.425Z,43.49
2018-10-12T00:57:16.464Z,43.46
2018-10-12T00:58:16.463Z,43.29
2018-10-12T00:59:16.922Z,43.59
2018-10-12T01:00:16.465Z,43.08
2018-10-12T01:01:16.436Z,43.59
2018-10-12T01:02:17.413Z,43.27
2018-10-12T01:03:16.908Z,43.37
2018-10-12T01:04:16.927Z,43.49
2018-10-12T01:05:16.386Z,43.49
2018-10-12T01:06:16.382Z,43.29
2018-10-12T01:07:16.358Z,43.29
2018-10-12T01:08:16.917Z,43.38
2018-10-12T01:09:16.922Z,43.37
2018-10-12T01:10:16.326Z,43.27
2018-10-12T01:11:16.946Z,43.49
2018-10-12T01:12:16.402Z,43.38
2018-10-12T01:13:16.918Z,43.38
2018-10-12T01:14:16.422Z,43.37
2018-10-12T01:15:16.281Z,43.46
2018-10-12T01:16:16.927Z,43.49
2018-10-12T01:17:16.911Z,43.49
2018-10-12T01:18:16.269Z,43.29
2018-10-12T01:19:16.236Z,43.38
2018-10-12T01:20:16.353Z,43.38
2018-10-12T01:21:16.216Z,43.38
2018-10-12T01:22:16.199Z,43.49
2018-10-12T01:23:16.188Z,43.38
2018-10-12T01:24:16.188Z,43.16
2018-10-12T01:25:16.326Z,43.49
2018-10-12T01:26:16.912Z,43.49
2018-10-12T01:27:16.149Z,43.49
2018-10-12T01:28:16.146Z,43.38
2018-10-12T01:29:16.926Z,43.49
2018-10-12T01:30:16.423Z,43.59
2018-10-12T01:31:16.943Z,43.38
2018-10-12T01:32:16.105Z,43.38
2018-10-12T01:33:16.090Z,43.49
2018-10-12T01:34:16.112Z,43.29
2018-10-12T01:35:16.429Z,43.38
2018-10-12T01:36:16.075Z,43.49
2018-10-12T01:37:16.073Z,43.59
2018-10-12T01:38:16.953Z,43.49
2018-10-12T01:39:16.962Z,43.49
2018-10-12T01:40:16.405Z,43.38
2018-10-12T01:41:16.926Z,43.38
2018-10-12T01:42:16.082Z,43.49
2018-10-12T01:43:16.911Z,43.49
2018-10-12T01:44:15.983Z,43.59
2018-10-12T01:45:16.185Z,43.49
2018-10-12T01:46:15.984Z,43.49
2018-10-12T01:47:15.935Z,43.49
2018-10-12T01:48:15.917Z,43.49
2018-10-12T01:49:15.910Z,43.49
2018-10-12T01:50:16.029Z,43.49
2018-10-12T01:51:16.428Z,43.38
2018-10-12T01:52:15.889Z,43.49
2018-10-12T01:53:15.870Z,43.49
2018-10-12T01:54:15.853Z,43.49
2018-10-12T01:55:16.429Z,43.49
2018-10-12T01:56:15.851Z,43.38
2018-10-12T01:57:16.410Z,43.49
2018-10-12T01:58:15.840Z,43.29
2018-10-12T01:59:16.412Z,43.49
2018-10-12T02:00:15.927Z,43.49
2018-10-12T02:01:15.784Z,43.38
2018-10-12T02:02:16.415Z,43.38
2018-10-12T02:03:15.776Z,43.38
2018-10-12T02:04:15.746Z,43.49
2018-10-12T02:05:15.937Z,43.49
2018-10-12T02:06:16.416Z,43.59
2018-10-12T02:07:16.477Z,43.59
2018-10-12T02:08:15.719Z,43.29
2018-10-12T02:09:16.473Z,43.49
2018-10-12T02:10:15.942Z,43.49
2018-10-12T02:11:16.431Z,43.38
2018-10-12T02:12:15.695Z,43.38
2018-10-12T02:13:16.413Z,43.49
2018-10-12T02:14:15.656Z,43.49
2018-10-12T02:15:16.037Z,43.38
2018-10-12T02:16:15.667Z,43.59
2018-10-12T02:17:16.473Z,43.49
2018-10-12T02:18:15.614Z,43.29
2018-10-12T02:19:16.427Z,43.49
2018-10-12T02:20:15.699Z,43.49
2018-10-12T02:21:15.580Z,43.49
2018-10-12T02:22:16.426Z,43.59
2018-10-12T02:23:15.541Z,43.38
2018-10-12T02:24:15.537Z,43.49
2018-10-12T02:25:15.653Z,43.49
2018-10-12T02:26:16.435Z,43.49
2018-10-12T02:27:15.517Z,43.49
2018-10-12T02:28:15.517Z,43.38
2018-10-12T02:29:16.453Z,43.49
2018-10-12T02:30:15.643Z,43.38
2018-10-12T02:31:16.437Z,43.59
2018-10-12T02:32:16.471Z,43.38
2018-10-12T02:33:15.446Z,43.59
2018-10-12T02:34:15.427Z,43.38
2018-10-12T02:35:15.544Z,43.49
2018-10-12T02:36:15.437Z,43.49
2018-10-12T02:37:15.429Z,43.49
2018-10-12T02:38:15.400Z,43.49
2018-10-12T02:39:15.453Z,43.59
2018-10-12T02:40:15.555Z,43.49
2018-10-12T02:41:15.373Z,43.38
2018-10-12T02:42:15.410Z,43.38
2018-10-12T02:43:15.394Z,43.49
2018-10-12T02:44:15.354Z,43.49
2018-10-12T02:45:15.585Z,43.49
2018-10-12T02:46:15.299Z,43.49
2018-10-12T02:47:15.327Z,43.49
2018-10-12T02:48:15.280Z,43.49
2018-10-12T02:49:15.278Z,43.49
2018-10-12T02:50:15.423Z,43.49
2018-10-12T02:51:15.245Z,43.49
2018-10-12T02:52:15.280Z,43.29
2018-10-12T02:53:15.225Z,43.49
2018-10-12T02:54:15.228Z,43.38
2018-10-12T02:55:15.227Z,43.49
2018-10-12T02:56:15.338Z,43.49
2018-10-12T02:57:15.233Z,43.38
2018-10-12T02:58:15.241Z,43.59
2018-10-12T02:59:15.185Z,43.59
2018-10-12T03:00:15.205Z,43.59
2018-10-12T03:01:15.284Z,43.59
2018-10-12T03:02:15.142Z,43.59
2018-10-12T03:03:15.121Z,43.49
2018-10-12T03:04:15.107Z,43.49
2018-10-12T03:05:15.141Z,43.38
2018-10-12T03:06:15.914Z,43.49
2018-10-12T03:07:15.072Z,43.49
2018-10-12T03:08:16.021Z,43.68
2018-10-12T03:09:15.056Z,43.59
2018-10-12T03:10:15.151Z,43.59
2018-10-12T03:11:15.637Z,43.49
2018-10-12T03:12:15.049Z,43.59
2018-10-12T03:13:15.083Z,43.49
2018-10-12T03:14:15.067Z,43.49
2018-10-12T03:15:15.950Z,43.59
2018-10-12T03:16:15.503Z,43.59
2018-10-12T03:17:14.966Z,43.59
2018-10-12T03:18:15.016Z,43.49
2018-10-12T03:19:14.962Z,43.68
2018-10-12T03:20:14.959Z,43.59
2018-10-12T03:21:15.049Z,43.59
2018-10-12T03:22:14.929Z,43.59
2018-10-12T03:23:14.941Z,43.49
2018-10-12T03:24:14.896Z,43.59
2018-10-12T03:25:14.883Z,43.49
2018-10-12T03:26:15.014Z,43.59
2018-10-12T03:27:14.878Z,43.49
2018-10-12T03:28:14.868Z,43.59
2018-10-12T03:29:14.866Z,43.68
2018-10-12T03:30:14.833Z,43.59
2018-10-12T03:31:15.100Z,43.49
2018-10-12T03:32:14.807Z,44.08
2018-10-12T03:33:14.802Z,43.59
2018-10-12T03:34:14.792Z,43.49
2018-10-12T03:35:14.795Z,43.49
2018-10-12T03:36:14.921Z,43.68
2018-10-12T03:37:14.779Z,43.49
2018-10-12T03:38:14.761Z,43.49
2018-10-12T03:39:14.731Z,43.49
2018-10-12T03:40:14.723Z,43.49
2018-10-12T03:41:14.831Z,43.59
2018-10-12T03:42:14.743Z,43.59
2018-10-12T03:43:14.704Z,43.49
2018-10-12T03:44:14.679Z,43.59
2018-10-12T03:45:14.669Z,43.79
2018-10-12T03:46:14.885Z,43.49
2018-10-12T03:47:14.641Z,43.49
2018-10-12T03:48:14.662Z,43.68
2018-10-12T03:49:14.633Z,43.59
2018-10-12T03:50:14.624Z,43.59
2018-10-12T03:51:14.767Z,43.49
2018-10-12T03:52:14.603Z,43.49
2018-10-12T03:53:14.577Z,43.51
2018-10-12T03:54:14.570Z,43.49
2018-10-12T03:55:15.424Z,43.38
2018-10-12T03:56:14.982Z,43.49
2018-10-12T03:57:15.544Z,43.49
2018-10-12T03:58:15.488Z,43.38
2018-10-12T03:59:15.453Z,43.59
2018-10-12T04:00:14.526Z,43.51
2018-10-12T04:01:14.663Z,44.08
2018-10-12T04:02:14.493Z,43.59
2018-10-12T04:03:14.477Z,43.49
2018-10-12T04:04:14.463Z,43.68
2018-10-12T04:05:14.460Z,43.49
2018-10-12T04:06:14.591Z,43.49
2018-10-12T04:07:14.437Z,43.68
2018-10-12T04:08:14.436Z,43.49
2018-10-12T04:09:14.413Z,43.49
2018-10-12T04:10:14.400Z,43.59
2018-10-12T04:11:14.545Z,43.49
2018-10-12T04:12:14.385Z,43.68
2018-10-12T04:13:14.386Z,43.49
2018-10-12T04:14:14.358Z,43.49
2018-10-12T04:15:14.348Z,43.49
2018-10-12T04:16:14.494Z,43.49
2018-10-12T04:17:14.340Z,43.49
2018-10-12T04:18:14.314Z,43.49
2018-10-12T04:19:14.311Z,43.68
2018-10-12T04:20:14.292Z,43.49
2018-10-12T04:21:14.411Z,43.88
2018-10-12T04:22:14.288Z,43.49
2018-10-12T04:23:14.286Z,43.68
2018-10-12T04:24:14.285Z,43.49
2018-10-12T04:25:14.247Z,43.38
2018-10-12T04:26:14.520Z,43.38
2018-10-12T04:27:14.258Z,43.59
2018-10-12T04:28:14.222Z,43.68
2018-10-12T04:29:14.247Z,43.79
2018-10-12T04:30:14.185Z,43.49
2018-10-12T04:31:14.209Z,43.49
2018-10-12T04:32:14.305Z,43.71
2018-10-12T04:33:14.158Z,43.68
2018-10-12T04:34:14.182Z,43.49
2018-10-12T04:35:14.161Z,43.59
2018-10-12T04:36:14.126Z,43.68
2018-10-12T04:37:14.250Z,43.49
2018-10-12T04:38:14.099Z,43.68
2018-10-12T04:39:14.090Z,43.88
2018-10-12T04:40:14.077Z,43.51
2018-10-12T04:41:14.102Z,43.59
2018-10-12T04:42:14.184Z,44.08
2018-10-12T04:43:14.045Z,43.68
2018-10-12T04:44:14.037Z,43.49
2018-10-12T04:45:14.075Z,43.98
2018-10-12T04:46:14.014Z,43.88
2018-10-12T04:47:14.220Z,43.79
2018-10-12T04:48:14.000Z,43.41
2018-10-12T04:49:14.011Z,43.79
2018-10-12T04:50:13.972Z,43.98
2018-10-12T04:51:13.960Z,43.88
2018-10-12T04:52:14.140Z,44.01
2018-10-12T04:53:13.945Z,43.49
2018-10-12T04:54:13.931Z,43.68
2018-10-12T04:55:13.960Z,43.49
2018-10-12T04:56:13.905Z,43.98
2018-10-12T04:57:14.308Z,43.88
2018-10-12T04:58:13.895Z,43.49
2018-10-12T04:59:13.886Z,44.08
2018-10-12T05:00:14.085Z,44.08
2018-10-12T05:01:13.881Z,44.18
2018-10-12T05:02:13.971Z,43.80
2018-10-12T05:03:13.842Z,44.08
2018-10-12T05:04:13.825Z,43.68
2018-10-12T05:05:13.817Z,44.08
2018-10-12T05:06:13.795Z,43.49
2018-10-12T05:07:13.947Z,43.88
2018-10-12T05:08:14.427Z,43.88
2018-10-12T05:09:13.769Z,43.59
2018-10-12T05:10:14.429Z,43.88
2018-10-12T05:11:13.750Z,44.08
2018-10-12T05:12:13.975Z,43.88
2018-10-12T05:13:14.428Z,43.79
2018-10-12T05:14:13.711Z,43.88
2018-10-12T05:15:14.441Z,43.38
2018-10-12T05:16:14.434Z,43.68
2018-10-12T05:17:14.108Z,43.49
2018-10-12T05:18:13.672Z,43.88
2018-10-12T05:19:13.660Z,43.88
2018-10-12T05:20:13.655Z,43.88
2018-10-12T05:21:13.670Z,43.88
2018-10-12T05:22:14.170Z,43.98
2018-10-12T05:23:13.659Z,43.38
2018-10-12T05:24:13.612Z,43.88
2018-10-12T05:25:14.455Z,43.79
2018-10-12T05:26:14.443Z,43.98
2018-10-12T05:27:13.705Z,43.98
2018-10-12T05:28:13.570Z,43.80
2018-10-12T05:29:13.550Z,43.79
2018-10-12T05:30:13.654Z,43.79
2018-10-12T05:31:13.538Z,44.01
2018-10-12T05:32:13.642Z,43.98
2018-10-12T05:33:13.507Z,43.88
2018-10-12T05:34:14.445Z,43.88
2018-10-12T05:35:14.452Z,43.80
2018-10-12T05:36:14.603Z,43.98
2018-10-12T05:37:14.086Z,43.29
2018-10-12T05:38:13.452Z,43.38
2018-10-12T05:39:13.480Z,43.51
2018-10-12T05:40:13.437Z,43.49
2018-10-12T05:41:13.419Z,43.59
2018-10-12T05:42:13.441Z,43.49
2018-10-12T05:43:13.578Z,43.30
2018-10-12T05:44:13.941Z,43.49
2018-10-12T05:45:13.931Z,43.59
2018-10-12T05:46:13.381Z,43.68
2018-10-12T05:47:13.375Z,43.59
2018-10-12T05:48:13.492Z,43.59
2018-10-12T05:49:13.338Z,43.59
2018-10-12T05:50:13.339Z,43.98
2018-10-12T05:51:13.323Z,43.38
2018-10-12T05:52:13.304Z,43.59
2018-10-12T05:57:13.045Z,43.49
2018-10-12T05:58:13.582Z,43.98
2018-10-12T05:59:13.967Z,43.98
2018-10-12T06:00:13.444Z,44.10
2018-10-12T06:01:13.521Z,43.29
2018-10-12T06:02:13.968Z,42.89
2018-10-12T06:03:13.984Z,43.08
2018-10-12T06:04:13.396Z,43.49
2018-10-12T06:05:13.407Z,43.38
2018-10-12T06:06:13.981Z,43.49
2018-10-12T06:07:13.970Z,43.38
2018-10-12T06:08:13.508Z,43.19
2018-10-12T06:09:13.978Z,43.08
2018-10-12T06:10:13.341Z,43.38
2018-10-12T06:11:14.028Z,43.51
2018-10-12T06:12:14.000Z,43.30
2018-10-12T06:13:13.452Z,43.08
2018-10-12T06:14:13.984Z,43.49
2018-10-12T06:15:13.275Z,43.19
2018-10-12T06:16:13.989Z,43.29
2018-10-12T06:17:13.273Z,43.30
2018-10-12T06:18:13.481Z,43.08
2018-10-12T06:19:13.970Z,43.19
2018-10-12T06:20:13.974Z,43.51
2018-10-12T06:21:13.984Z,43.68
2018-10-12T06:22:14.016Z,44.08
2018-10-12T06:23:13.504Z,43.49
2018-10-12T06:24:13.259Z,43.98
2018-10-12T06:25:13.970Z,44.18
2018-10-12T06:26:13.163Z,44.08
2018-10-12T06:27:14.003Z,43.68
2018-10-12T06:28:13.484Z,43.49
2018-10-12T06:29:13.177Z,43.88
2018-10-12T06:30:13.969Z,44.08
2018-10-12T06:31:13.975Z,43.59
2018-10-12T06:32:13.987Z,43.88
2018-10-12T06:33:13.562Z,43.98
2018-10-12T06:34:14.047Z,43.79
2018-10-12T06:35:13.986Z,44.08
2018-10-12T06:36:13.058Z,43.79
2018-10-12T06:37:13.980Z,43.19
2018-10-12T06:38:14.108Z,43.38
2018-10-12T06:39:13.975Z,43.38
2018-10-12T06:40:13.202Z,43.49
2018-10-12T06:41:13.045Z,43.49
2018-10-12T06:42:13.981Z,43.88
2018-10-12T06:43:13.491Z,43.88
2018-10-12T06:44:13.483Z,44.48
2018-10-12T06:45:13.492Z,44.18
2018-10-12T06:46:13.661Z,44.18
2018-10-12T06:47:13.482Z,44.08
2018-10-12T06:48:13.069Z,44.18
2018-10-12T06:49:12.917Z,44.08
2018-10-12T06:50:12.893Z,44.28
2018-10-12T06:51:12.894Z,44.08
2018-10-12T06:52:12.883Z,44.18
2018-10-12T06:53:13.100Z,44.06
2018-10-12T06:54:12.980Z,44.36
2018-10-12T06:55:13.479Z,44.36
2018-10-12T06:56:13.476Z,43.76
2018-10-12T06:57:13.548Z,44.66
2018-10-12T06:58:12.932Z,43.76
2018-10-12T06:59:13.482Z,44.16
2018-10-12T07:00:13.490Z,43.86
2018-10-12T07:01:13.473Z,44.06
2018-10-12T07:02:12.809Z,44.24
2018-10-12T07:03:12.916Z,44.24
2018-10-12T07:04:12.759Z,43.94
2018-10-12T07:05:13.470Z,43.62
2018-10-12T07:06:13.475Z,43.42
2018-10-12T07:07:13.481Z,43.82
2018-10-12T07:08:13.626Z,43.62
2018-10-12T07:09:13.484Z,43.23
2018-10-12T07:10:13.478Z,43.40
2018-10-12T07:11:12.862Z,43.40
2018-10-12T07:12:12.660Z,43.10
2018-10-12T07:13:13.630Z,43.30
2018-10-12T07:14:13.493Z,42.80
2018-10-12T07:15:13.493Z,42.80
2018-10-12T07:16:13.483Z,43.20
2018-10-12T07:17:12.642Z,42.88
2018-10-12T07:18:12.594Z,43.08
2018-10-12T07:19:13.610Z,42.88
2018-10-12T07:20:13.584Z,43.40
2018-10-12T07:21:13.532Z,43.40
2018-10-12T07:22:12.665Z,43.20
2018-10-12T07:23:12.564Z,43.40
2018-10-12T07:24:13.769Z,43.20
2018-10-12T07:25:12.516Z,43.20
2018-10-12T07:26:13.483Z,43.50
2018-10-12T07:27:13.481Z,43.28
2018-10-12T07:28:13.605Z,43.20
2018-10-12T07:29:13.102Z,43.30
2018-10-12T07:30:12.981Z,43.20
2018-10-12T07:31:12.981Z,43.48
2018-10-12T07:32:12.975Z,43.20
2018-10-12T07:33:12.995Z,43.30
2018-10-12T07:34:13.099Z,43.90
2018-10-12T07:35:12.982Z,43.80
2018-10-12T07:36:12.975Z,43.60
2018-10-12T07:37:12.627Z,43.58
2018-10-12T07:38:13.027Z,43.78
2018-10-12T07:39:13.049Z,43.40
2018-10-12T07:40:12.367Z,43.50
2018-10-12T07:41:13.093Z,43.30
2018-10-12T07:42:12.976Z,43.60
2018-10-12T07:43:12.988Z,44.20
2018-10-12T07:44:12.981Z,44.40
2018-10-12T07:45:13.027Z,44.10
2018-10-12T07:46:13.038Z,44.20
2018-10-12T07:47:12.550Z,44.40
2018-10-12T07:48:13.072Z,44.00
2018-10-12T07:49:12.979Z,44.10
2018-10-12T07:50:12.985Z,44.00
2018-10-12T07:51:12.977Z,44.20
2018-10-12T07:52:13.002Z,44.29
2018-10-12T07:53:12.435Z,43.90
2018-10-12T07:54:13.060Z,44.20
2018-10-12T07:55:12.192Z,43.90
2018-10-12T07:56:12.981Z,44.00
2018-10-12T07:57:14.014Z,44.10
2018-10-12T07:58:13.004Z,43.80
2018-10-12T07:59:13.000Z,43.60
2018-10-12T08:00:12.231Z,44.49
2018-10-12T08:01:12.128Z,44.79
2018-10-12T08:02:13.007Z,44.49
2018-10-12T08:03:12.982Z,44.57
2018-10-12T08:04:12.265Z,44.40
2018-10-12T08:05:12.996Z,44.59
2018-10-12T08:06:12.092Z,44.67
2018-10-12T08:07:12.530Z,44.67
2018-10-12T08:08:12.980Z,44.59
2018-10-12T08:09:12.116Z,44.70
2018-10-12T08:10:12.048Z,44.40
2018-10-12T08:11:12.980Z,44.57
2018-10-12T08:12:12.489Z,44.49
2018-10-12T08:13:13.023Z,44.40
2018-10-12T08:14:13.037Z,44.29
2018-10-12T08:15:12.119Z,44.57
2018-10-12T08:16:12.538Z,44.49
2018-10-12T08:17:12.537Z,44.07
2018-10-12T08:18:11.996Z,43.68
2018-10-12T08:19:12.515Z,44.59
2018-10-12T08:20:12.532Z,44.89
2018-10-12T08:21:12.482Z,44.49
2018-10-12T08:22:12.675Z,44.77
2018-10-12T08:23:12.501Z,44.29
2018-10-12T08:24:12.480Z,43.90
2018-10-12T08:25:12.482Z,44.18
2018-10-12T08:26:12.502Z,43.98
2018-10-12T08:27:12.336Z,43.98
2018-10-12T08:28:12.509Z,44.18
2018-10-12T08:29:12.485Z,43.78
2018-10-12T08:30:12.593Z,44.07
2018-10-12T08:31:12.559Z,43.98
2018-10-12T08:32:12.013Z,43.98
2018-10-12T08:33:11.805Z,43.98
2018-10-12T08:34:12.485Z,43.98
2018-10-12T08:35:11.855Z,44.07
2018-10-12T08:36:12.592Z,44.18
2018-10-12T08:37:12.024Z,43.98
2018-10-12T08:38:12.509Z,43.98
2018-10-12T08:39:12.483Z,43.88
2018-10-12T08:40:12.481Z,43.98
2018-10-12T08:41:12.484Z,43.98
2018-10-12T08:42:12.484Z,44.18
2018-10-12T08:43:12.012Z,44.18
2018-10-12T08:44:12.595Z,44.48
2018-10-12T08:45:12.492Z,44.27
2018-10-12T08:46:12.485Z,44.57
2018-10-12T08:47:12.484Z,43.68
2018-10-12T08:48:12.554Z,44.48
2018-10-12T08:49:12.491Z,44.67
2018-10-12T08:50:12.623Z,44.37
2018-10-12T08:51:12.479Z,44.27
2018-10-12T08:52:11.712Z,44.57
2018-10-12T08:53:12.021Z,44.37
2018-10-12T08:54:12.504Z,44.48
2018-10-12T08:55:11.584Z,44.37
2018-10-12T08:56:11.538Z,44.37
2018-10-12T08:57:11.522Z,45.07
2018-10-12T08:58:12.504Z,44.77
2018-10-12T08:59:12.491Z,44.77
2018-10-12T09:00:12.493Z,44.57
2018-10-12T09:01:12.018Z,44.48
2018-10-12T09:02:11.548Z,44.48
2018-10-12T09:03:12.001Z,44.57
2018-10-12T09:04:12.017Z,44.48
2018-10-12T09:05:12.067Z,44.37
2018-10-12T09:06:12.035Z,44.87
2018-10-12T09:07:11.985Z,45.27
2018-10-12T09:08:12.034Z,45.15
2018-10-12T09:09:12.023Z,44.67
2018-10-12T09:10:11.985Z,44.55
2018-10-12T09:11:11.984Z,45.17
2018-10-12T09:12:11.356Z,45.17
2018-10-12T09:13:11.507Z,45.25
2018-10-12T09:14:12.121Z,44.97
2018-10-12T09:15:12.018Z,45.07
2018-10-12T09:16:12.048Z,45.27
2018-10-12T09:17:11.984Z,45.37
2018-10-12T09:18:11.503Z,45.17
2018-10-12T09:19:11.997Z,45.15
2018-10-12T09:20:11.364Z,45.17
2018-10-12T09:21:12.133Z,45.15
2018-10-12T09:22:11.259Z,45.15
2018-10-12T09:23:12.014Z,45.37
2018-10-12T09:24:11.984Z,44.97
2018-10-12T09:25:11.231Z,45.07
2018-10-12T09:26:11.300Z,45.07
2018-10-12T09:27:11.211Z,45.15
2018-10-12T09:28:11.604Z,45.05
2018-10-12T09:29:12.033Z,44.95
2018-10-12T09:30:11.263Z,44.97
2018-10-12T09:31:11.984Z,45.17
2018-10-12T09:32:12.095Z,45.25
2018-10-12T09:33:12.005Z,45.15
2018-10-12T09:34:11.169Z,44.97
2018-10-12T09:35:11.984Z,45.05
2018-10-12T09:36:11.979Z,44.77
2018-10-12T09:37:12.133Z,45.25
2018-10-12T09:38:12.008Z,45.25
2018-10-12T09:39:11.984Z,45.37
2018-10-12T09:40:12.015Z,45.47
2018-10-12T09:41:11.984Z,45.37
2018-10-12T09:42:11.087Z,45.27
2018-10-12T09:43:11.552Z,44.85
2018-10-12T09:44:12.002Z,45.54
2018-10-12T09:45:11.984Z,45.25
2018-10-12T09:46:11.998Z,45.45
2018-10-12T09:47:10.996Z,45.25
2018-10-12T09:48:11.510Z,45.34
2018-10-12T09:49:11.557Z,44.85
2018-10-12T09:50:11.554Z,44.75
2018-10-12T09:51:11.502Z,45.15
2018-10-12T09:52:11.490Z,45.05
2018-10-12T09:53:11.580Z,45.05
2018-10-12T09:54:11.657Z,45.25
2018-10-12T09:55:11.510Z,44.95
2018-10-12T09:56:10.889Z,45.52
2018-10-12T09:57:10.887Z,45.45
2018-10-12T09:58:11.514Z,45.45
2018-10-12T09:59:11.552Z,45.45
2018-10-12T10:00:11.490Z,45.15
2018-10-12T10:01:11.488Z,45.03
2018-10-12T10:02:11.533Z,45.25
2018-10-12T10:03:11.514Z,45.34
2018-10-12T10:04:11.497Z,44.93
2018-10-12T10:05:11.491Z,44.83
2018-10-12T10:06:10.840Z,44.93
2018-10-12T10:07:10.867Z,44.93
2018-10-12T10:08:11.220Z,44.83
2018-10-12T10:09:11.675Z,45.12
2018-10-12T10:10:11.527Z,45.32
2018-10-12T10:11:10.849Z,45.12
2018-10-12T10:12:10.868Z,45.42
2018-10-12T10:13:11.538Z,44.83
2018-10-12T10:14:11.491Z,44.83
2018-10-12T10:15:10.686Z,44.90
2018-10-12T10:16:11.488Z,45.03
2018-10-12T10:17:11.604Z,45.32
2018-10-12T10:18:11.516Z,45.03
2018-10-12T10:19:11.516Z,45.30
2018-10-12T10:20:11.488Z,45.00
2018-10-12T10:21:11.486Z,45.00
2018-10-12T10:22:11.620Z,45.10
2018-10-12T10:23:11.511Z,44.51
2018-10-12T10:24:10.722Z,45.10
2018-10-12T10:25:15.588Z,45.10
2018-10-12T10:26:11.572Z,44.60
2018-10-12T10:27:12.384Z,44.51
2018-10-12T10:28:11.516Z,44.71
2018-10-12T10:29:11.532Z,44.51
2018-10-12T10:30:10.542Z,44.68
2018-10-12T10:31:11.522Z,44.51
2018-10-12T10:32:10.685Z,45.20
2018-10-12T10:33:11.007Z,44.78
2018-10-12T10:34:11.026Z,44.49
2018-10-12T10:35:10.993Z,44.39
2018-10-12T10:36:11.116Z,44.39
2018-10-12T10:37:11.010Z,44.78
2018-10-12T10:38:11.078Z,44.39
2018-10-12T10:39:11.125Z,44.39
2018-10-12T10:40:11.120Z,44.19
2018-10-12T10:41:11.025Z,43.60
2018-10-12T10:42:11.006Z,43.70
2018-10-12T10:43:11.006Z,43.99
2018-10-12T10:44:11.024Z,44.09
2018-10-12T10:45:11.025Z,43.87
2018-10-12T10:46:11.002Z,43.87
2018-10-12T10:47:10.991Z,43.89
2018-10-12T10:48:10.989Z,43.87
2018-10-12T10:49:11.006Z,43.87
2018-10-12T10:50:10.338Z,43.70
2018-10-12T10:51:10.340Z,43.89
2018-10-12T10:52:11.053Z,43.97
2018-10-12T10:53:11.095Z,44.37
2018-10-12T10:54:11.038Z,44.37
2018-10-12T10:55:11.032Z,43.57
2018-10-12T10:56:10.380Z,43.57
2018-10-12T10:57:11.105Z,43.48
2018-10-12T10:58:10.991Z,43.57
2018-10-12T10:59:10.516Z,44.67
2018-10-12T11:00:13.157Z,44.67
2018-10-12T11:01:11.050Z,43.57
2018-10-12T11:02:11.038Z,43.57
2018-10-12T11:03:10.989Z,43.57
2018-10-12T11:04:11.023Z,43.95
2018-10-12T11:05:11.102Z,43.97
2018-10-12T11:06:11.003Z,43.85
2018-10-12T11:07:11.035Z,43.87
2018-10-12T11:08:11.008Z,43.85
2018-10-12T11:09:10.511Z,43.87
2018-10-12T11:10:11.040Z,43.85
2018-10-12T11:11:10.990Z,43.95
2018-10-12T11:12:11.040Z,43.95
2018-10-12T11:13:10.085Z,44.05
2018-10-12T11:14:11.027Z,43.97
2018-10-12T11:15:11.056Z,43.85
2018-10-12T11:16:10.997Z,44.05
2018-10-12T11:17:10.999Z,44.24
2018-10-12T11:18:11.000Z,44.15
2018-10-12T11:19:11.795Z,43.95
2018-10-12T11:20:10.497Z,43.06
2018-10-12T11:21:10.643Z,43.06
2018-10-12T11:22:10.496Z,43.26
2018-10-12T11:23:09.975Z,43.35
2018-10-12T11:24:10.524Z,43.55
2018-10-12T11:25:10.527Z,43.65
2018-10-12T11:26:10.633Z,43.75
2018-10-12T11:27:10.510Z,43.65
2018-10-12T11:28:09.928Z,43.85
2018-10-12T11:29:10.515Z,43.55
2018-10-12T11:30:10.568Z,42.86
2018-10-12T11:31:09.878Z,42.86
2018-10-12T11:32:10.614Z,43.26
2018-10-12T11:33:09.966Z,43.24
2018-10-12T11:34:10.527Z,43.16
2018-10-12T11:35:09.946Z,43.16
2018-10-12T11:36:10.516Z,43.16
2018-10-12T11:37:10.510Z,43.26
2018-10-12T11:38:10.511Z,43.26
2018-10-12T11:39:10.042Z,43.26
2018-10-12T11:40:10.496Z,43.13
2018-10-12T11:41:10.491Z,43.06
2018-10-12T11:42:10.497Z,42.84
2018-10-12T11:43:09.777Z,43.06
2018-10-12T11:44:10.170Z,42.84
2018-10-12T11:45:09.795Z,43.04
2018-10-12T11:46:10.496Z,43.06
2018-10-12T11:47:10.494Z,42.86
2018-10-12T11:48:10.501Z,42.86
2018-10-12T11:49:10.512Z,42.74
2018-10-12T11:50:09.813Z,42.44
2018-10-12T11:51:09.764Z,43.13
2018-10-12T11:52:09.706Z,42.54
2018-10-12T11:53:10.530Z,42.64
2018-10-12T11:54:10.520Z,43.13
2018-10-12T11:55:09.629Z,43.43
2018-10-12T11:56:10.509Z,42.74
2018-10-12T11:57:10.507Z,43.04
2018-10-12T11:58:10.494Z,43.04
2018-10-12T11:59:10.048Z,43.43
2018-10-12T12:00:10.497Z,43.04
2018-10-12T12:01:10.645Z,43.83
2018-10-12T12:02:10.709Z,43.53
2018-10-12T12:03:10.496Z,43.43
2018-10-12T12:04:10.020Z,43.63
2018-10-12T12:05:10.510Z,43.33
2018-10-12T12:06:10.004Z,43.24
2018-10-12T12:07:10.040Z,43.24
2018-10-12T12:08:10.159Z,43.13
2018-10-12T12:09:10.031Z,43.04
2018-10-12T12:10:10.096Z,43.43
2018-10-12T12:11:10.007Z,43.04
2018-10-12T12:12:09.991Z,43.53
2018-10-12T12:13:09.992Z,44.02
2018-10-12T12:14:10.021Z,43.43
2018-10-12T12:15:09.442Z,43.63
2018-10-12T12:16:09.997Z,44.13
2018-10-12T12:17:09.512Z,44.02
2018-10-12T12:18:09.997Z,43.63
2018-10-12T12:19:10.030Z,44.23
2018-10-12T12:20:10.004Z,43.63
2018-10-12T12:21:10.116Z,43.83
2018-10-12T12:22:10.005Z,44.02
2018-10-12T12:23:09.998Z,43.93
2018-10-12T12:24:10.038Z,44.13
2018-10-12T12:25:09.370Z,44.02
2018-10-12T12:26:10.080Z,44.32
2018-10-12T12:27:10.012Z,43.83
2018-10-12T12:28:09.260Z,43.93
2018-10-12T12:29:10.291Z,44.02
2018-10-12T12:30:10.184Z,44.13
2018-10-12T12:31:10.121Z,44.23
2018-10-12T12:32:10.005Z,44.13
2018-10-12T12:33:10.004Z,44.13
2018-10-12T12:34:10.067Z,44.02
2018-10-12T12:35:09.481Z,43.83
2018-10-12T12:36:10.193Z,44.02
2018-10-12T12:37:10.011Z,43.83
2018-10-12T12:38:10.116Z,43.83
2018-10-12T12:39:11.035Z,43.53
2018-10-12T12:40:10.004Z,43.93
2018-10-12T12:41:10.057Z,43.24
2018-10-12T12:42:10.019Z,42.84
2018-10-12T12:43:09.154Z,43.43
2018-10-12T12:44:10.022Z,42.74
2018-10-12T12:45:10.054Z,43.04
2018-10-12T12:46:09.085Z,42.44
2018-10-12T12:47:10.011Z,41.95
2018-10-12T12:48:10.260Z,41.25
2018-10-12T12:49:10.680Z,41.75
2018-10-12T12:50:09.997Z,41.75
2018-10-12T12:51:10.027Z,41.65
2018-10-12T12:52:09.521Z,42.05
2018-10-12T12:53:09.581Z,42.36
2018-10-12T12:54:09.508Z,42.27
2018-10-12T12:55:09.538Z,41.67
2018-10-12T12:56:09.518Z,43.16